Ana Sayfa
METAR-TAF:

METAR-TAF

Havaalanları :

South Wood County Airport (Alexander Field)

Wisconsin Rapids, Wisconsin, Amerika Birleşik Devletleri

Enlem: 44-21-33N, Boylam: 089-50-13W, yükseklik: 311 m

Güncel hava durumu gözlemi

Rapor saat 01:54 UTC de 21 dakika önce yapıldı.
Rüzgar güneydoğudan 5 kt
Sıcaklık 21°C
Nem 88%
Basınç 1015 hPa
Görüş mesafesi: 16.1 km
5000 ft yükseklikte parçalı çok bulutlu
7000 ft yükseklikte çok bulutlu

METAR: KISW 140154Z AUTO 14005KT 10SM BKN050 OVC070 21/19 A2998 RMK AO2 LTG DSNT SE SLP146 T02060194

Saat: 21:15 (02:15 UTC)


TAF: eksik

4.000'den fazla havaalanı için hava durumu gözlemleri ve tahminleri (METAR ve TAF raporları).

Kullanılabilir istasyonlar harita üzerinde sarı ve kırmızı noktalarla gösterilir.

İstasyonun adını görmek için fareyi noktanın üzerinde gezdirin.

Sonrasında hava gözlem ve tahminlerini görmek için tıklayın.

Haritayı değiştirmek için: yaklaştırmak için siyah artı işaretli yeşil düğmeye ve uzaklaştırmak için de eksi işaretli düğmeye hızla tıklayın; bitişik haritalar için yeşil okları kullanın.


METAR-TAF: